sensor_id;sensor_type;location;lat;lon;timestamp;P1;durP1;ratioP1;P2;durP2;ratioP2
20531;SDS011;10424;52.102;8.084;2022-12-07T00:00:18;37.03;;;18.40;;
20531;SDS011;10424;52.102;8.084;2022-12-07T00:02:46;33.20;;;17.70;;
20531;SDS011;10424;52.102;8.084;2022-12-07T00:05:13;39.35;;;18.88;;
20531;SDS011;10424;52.102;8.084;2022-12-07T00:07:42;38.65;;;18.48;;
20531;SDS011;10424;52.102;8.084;2022-12-07T00:10:09;41.07;;;19.37;;
20531;SDS011;10424;52.102;8.084;2022-12-07T00:12:36;41.03;;;19.27;;
20531;SDS011;10424;52.102;8.084;2022-12-07T00:15:04;37.90;;;18.37;;
20531;SDS011;10424;52.102;8.084;2022-12-07T00:17:31;38.20;;;18.03;;
20531;SDS011;10424;52.102;8.084;2022-12-07T00:19:59;40.40;;;17.83;;
20531;SDS011;10424;52.102;8.084;2022-12-07T00:22:27;36.90;;;17.50;;
20531;SDS011;10424;52.102;8.084;2022-12-07T00:24:55;34.47;;;17.53;;
20531;SDS011;10424;52.102;8.084;2022-12-07T00:27:23;38.53;;;18.50;;
20531;SDS011;10424;52.102;8.084;2022-12-07T00:29:50;41.47;;;18.47;;
20531;SDS011;10424;52.102;8.084;2022-12-07T00:32:17;37.73;;;16.77;;
20531;SDS011;10424;52.102;8.084;2022-12-07T00:34:44;36.47;;;16.93;;
20531;SDS011;10424;52.102;8.084;2022-12-07T00:37:12;34.13;;;16.87;;
20531;SDS011;10424;52.102;8.084;2022-12-07T00:39:39;33.57;;;16.00;;
20531;SDS011;10424;52.102;8.084;2022-12-07T00:42:07;32.43;;;15.80;;
20531;SDS011;10424;52.102;8.084;2022-12-07T00:44:35;31.17;;;15.37;;
20531;SDS011;10424;52.102;8.084;2022-12-07T00:47:02;29.57;;;14.00;;
20531;SDS011;10424;52.102;8.084;2022-12-07T00:49:29;27.40;;;12.90;;
20531;SDS011;10424;52.102;8.084;2022-12-07T00:51:57;27.40;;;13.63;;
20531;SDS011;10424;52.102;8.084;2022-12-07T00:54:24;26.30;;;12.50;;
20531;SDS011;10424;52.102;8.084;2022-12-07T00:56:51;28.53;;;12.60;;
20531;SDS011;10424;52.102;8.084;2022-12-07T00:59:20;26.17;;;11.80;;
20531;SDS011;10424;52.102;8.084;2022-12-07T01:01:47;27.93;;;11.67;;
20531;SDS011;10424;52.102;8.084;2022-12-07T01:04:14;24.97;;;12.03;;
20531;SDS011;10424;52.102;8.084;2022-12-07T01:06:41;25.63;;;12.02;;
20531;SDS011;10424;52.102;8.084;2022-12-07T01:09:09;26.05;;;12.48;;
20531;SDS011;10424;52.102;8.084;2022-12-07T01:11:36;25.63;;;12.43;;
20531;SDS011;10424;52.102;8.084;2022-12-07T01:14:03;23.92;;;12.52;;
20531;SDS011;10424;52.102;8.084;2022-12-07T01:16:32;24.98;;;12.80;;
20531;SDS011;10424;52.102;8.084;2022-12-07T01:19:00;26.60;;;12.23;;
20531;SDS011;10424;52.102;8.084;2022-12-07T01:21:30;26.87;;;13.13;;
20531;SDS011;10424;52.102;8.084;2022-12-07T01:23:59;26.00;;;12.30;;
20531;SDS011;10424;52.102;8.084;2022-12-07T01:26:27;28.08;;;13.63;;
20531;SDS011;10424;52.102;8.084;2022-12-07T01:28:54;24.33;;;12.35;;
20531;SDS011;10424;52.102;8.084;2022-12-07T01:31:24;24.87;;;13.13;;
20531;SDS011;10424;52.102;8.084;2022-12-07T01:33:54;19.63;;;9.87;;
20531;SDS011;10424;52.102;8.084;2022-12-07T01:36:22;24.13;;;11.47;;
20531;SDS011;10424;52.102;8.084;2022-12-07T01:38:50;23.53;;;11.70;;
20531;SDS011;10424;52.102;8.084;2022-12-07T01:41:18;22.67;;;10.60;;
20531;SDS011;10424;52.102;8.084;2022-12-07T01:46:32;20.63;;;11.30;;
20531;SDS011;10424;52.102;8.084;2022-12-07T01:49:00;24.05;;;11.82;;
20531;SDS011;10424;52.102;8.084;2022-12-07T01:51:28;22.30;;;11.07;;
20531;SDS011;10424;52.102;8.084;2022-12-07T01:53:56;21.23;;;11.03;;
20531;SDS011;10424;52.102;8.084;2022-12-07T01:56:24;20.50;;;10.60;;
20531;SDS011;10424;52.102;8.084;2022-12-07T01:58:52;19.37;;;10.37;;
20531;SDS011;10424;52.102;8.084;2022-12-07T02:01:21;21.30;;;9.97;;
20531;SDS011;10424;52.102;8.084;2022-12-07T02:03:48;21.50;;;9.67;;
20531;SDS011;10424;52.102;8.084;2022-12-07T02:06:18;20.17;;;9.87;;
20531;SDS011;10424;52.102;8.084;2022-12-07T02:08:46;14.27;;;7.93;;
20531;SDS011;10424;52.102;8.084;2022-12-07T02:11:13;21.83;;;9.43;;
20531;SDS011;10424;52.102;8.084;2022-12-07T02:13:41;19.70;;;8.70;;
20531;SDS011;10424;52.102;8.084;2022-12-07T02:16:12;21.43;;;9.53;;
20531;SDS011;10424;52.102;8.084;2022-12-07T02:18:55;24.40;;;9.80;;
20531;SDS011;10424;52.102;8.084;2022-12-07T02:21:27;19.00;;;9.53;;
20531;SDS011;10424;52.102;8.084;2022-12-07T02:24:18;18.60;;;9.20;;
20531;SDS011;10424;52.102;8.084;2022-12-07T02:27:07;21.37;;;9.40;;
20531;SDS011;10424;52.102;8.084;2022-12-07T02:29:42;19.27;;;10.03;;
20531;SDS011;10424;52.102;8.084;2022-12-07T02:32:13;19.70;;;10.47;;
20531;SDS011;10424;52.102;8.084;2022-12-07T02:34:43;21.17;;;9.80;;
20531;SDS011;10424;52.102;8.084;2022-12-07T02:37:14;17.30;;;9.30;;
20531;SDS011;10424;52.102;8.084;2022-12-07T02:39:46;21.00;;;9.83;;
20531;SDS011;10424;52.102;8.084;2022-12-07T02:42:15;19.10;;;9.77;;
20531;SDS011;10424;52.102;8.084;2022-12-07T02:44:45;19.20;;;10.10;;
20531;SDS011;10424;52.102;8.084;2022-12-07T02:47:14;25.97;;;10.43;;
20531;SDS011;10424;52.102;8.084;2022-12-07T02:49:42;25.77;;;10.23;;
20531;SDS011;10424;52.102;8.084;2022-12-07T02:52:10;21.23;;;10.40;;
20531;SDS011;10424;52.102;8.084;2022-12-07T02:54:37;19.60;;;10.10;;
20531;SDS011;10424;52.102;8.084;2022-12-07T02:57:07;21.63;;;9.77;;
20531;SDS011;10424;52.102;8.084;2022-12-07T02:59:42;20.93;;;10.57;;
20531;SDS011;10424;52.102;8.084;2022-12-07T03:02:17;17.33;;;9.23;;
20531;SDS011;10424;52.102;8.084;2022-12-07T03:04:51;18.53;;;9.20;;
20531;SDS011;10424;52.102;8.084;2022-12-07T03:07:23;18.87;;;9.57;;
20531;SDS011;10424;52.102;8.084;2022-12-07T03:09:53;20.73;;;9.43;;
20531;SDS011;10424;52.102;8.084;2022-12-07T03:12:27;19.87;;;9.87;;
20531;SDS011;10424;52.102;8.084;2022-12-07T03:14:57;18.97;;;9.33;;
20531;SDS011;10424;52.102;8.084;2022-12-07T03:17:29;19.30;;;9.57;;
20531;SDS011;10424;52.102;8.084;2022-12-07T03:19:59;20.10;;;9.37;;
20531;SDS011;10424;52.102;8.084;2022-12-07T03:22:27;19.93;;;9.63;;
20531;SDS011;10424;52.102;8.084;2022-12-07T03:24:57;17.13;;;9.10;;
20531;SDS011;10424;52.102;8.084;2022-12-07T03:27:25;17.50;;;9.13;;
20531;SDS011;10424;52.102;8.084;2022-12-07T03:29:54;20.97;;;9.50;;
20531;SDS011;10424;52.102;8.084;2022-12-07T03:32:23;15.90;;;9.30;;
20531;SDS011;10424;52.102;8.084;2022-12-07T03:34:55;21.63;;;9.47;;
20531;SDS011;10424;52.102;8.084;2022-12-07T03:37:26;20.17;;;9.00;;
20531;SDS011;10424;52.102;8.084;2022-12-07T03:39:57;17.70;;;9.10;;
20531;SDS011;10424;52.102;8.084;2022-12-07T03:42:26;20.90;;;9.17;;
20531;SDS011;10424;52.102;8.084;2022-12-07T03:44:54;18.30;;;8.33;;
20531;SDS011;10424;52.102;8.084;2022-12-07T03:47:22;16.97;;;9.70;;
20531;SDS011;10424;52.102;8.084;2022-12-07T03:49:55;21.07;;;8.53;;
20531;SDS011;10424;52.102;8.084;2022-12-07T03:52:26;18.83;;;8.50;;
20531;SDS011;10424;52.102;8.084;2022-12-07T03:54:56;19.90;;;9.57;;
20531;SDS011;10424;52.102;8.084;2022-12-07T03:57:25;18.60;;;8.80;;
20531;SDS011;10424;52.102;8.084;2022-12-07T03:59:53;18.73;;;8.97;;
20531;SDS011;10424;52.102;8.084;2022-12-07T04:02:21;15.40;;;8.43;;
20531;SDS011;10424;52.102;8.084;2022-12-07T04:04:49;24.80;;;9.20;;
20531;SDS011;10424;52.102;8.084;2022-12-07T04:07:18;20.63;;;8.63;;
20531;SDS011;10424;52.102;8.084;2022-12-07T04:09:45;16.67;;;7.70;;
20531;SDS011;10424;52.102;8.084;2022-12-07T04:12:12;16.43;;;8.00;;
20531;SDS011;10424;52.102;8.084;2022-12-07T04:14:39;19.00;;;8.60;;
20531;SDS011;10424;52.102;8.084;2022-12-07T04:17:08;16.83;;;7.80;;
20531;SDS011;10424;52.102;8.084;2022-12-07T04:19:35;14.93;;;7.33;;
20531;SDS011;10424;52.102;8.084;2022-12-07T04:22:03;14.93;;;7.77;;
20531;SDS011;10424;52.102;8.084;2022-12-07T04:24:32;17.00;;;7.30;;
20531;SDS011;10424;52.102;8.084;2022-12-07T04:26:59;14.53;;;7.33;;
20531;SDS011;10424;52.102;8.084;2022-12-07T04:29:27;15.30;;;7.30;;
20531;SDS011;10424;52.102;8.084;2022-12-07T04:31:54;16.37;;;7.33;;
20531;SDS011;10424;52.102;8.084;2022-12-07T04:34:21;15.53;;;7.67;;
20531;SDS011;10424;52.102;8.084;2022-12-07T04:36:49;18.37;;;8.47;;
20531;SDS011;10424;52.102;8.084;2022-12-07T04:39:18;16.60;;;7.37;;
20531;SDS011;10424;52.102;8.084;2022-12-07T04:41:47;15.80;;;7.40;;
20531;SDS011;10424;52.102;8.084;2022-12-07T04:44:14;15.60;;;7.00;;
20531;SDS011;10424;52.102;8.084;2022-12-07T04:46:42;14.27;;;6.70;;
20531;SDS011;10424;52.102;8.084;2022-12-07T04:49:09;16.67;;;7.30;;
20531;SDS011;10424;52.102;8.084;2022-12-07T04:51:37;18.10;;;8.33;;
20531;SDS011;10424;52.102;8.084;2022-12-07T04:54:05;16.80;;;7.13;;
20531;SDS011;10424;52.102;8.084;2022-12-07T04:56:32;19.43;;;7.47;;
20531;SDS011;10424;52.102;8.084;2022-12-07T04:59:02;17.20;;;7.23;;
20531;SDS011;10424;52.102;8.084;2022-12-07T05:01:30;15.90;;;7.27;;
20531;SDS011;10424;52.102;8.084;2022-12-07T05:03:57;18.53;;;6.80;;
20531;SDS011;10424;52.102;8.084;2022-12-07T05:06:24;15.07;;;6.57;;
20531;SDS011;10424;52.102;8.084;2022-12-07T05:08:52;13.83;;;6.50;;
20531;SDS011;10424;52.102;8.084;2022-12-07T05:11:19;15.30;;;6.60;;
20531;SDS011;10424;52.102;8.084;2022-12-07T05:14:07;11.90;;;6.20;;
20531;SDS011;10424;52.102;8.084;2022-12-07T05:16:38;15.60;;;6.63;;
20531;SDS011;10424;52.102;8.084;2022-12-07T05:19:05;14.20;;;6.40;;
20531;SDS011;10424;52.102;8.084;2022-12-07T05:21:32;16.37;;;6.60;;
20531;SDS011;10424;52.102;8.084;2022-12-07T05:24:00;16.70;;;7.00;;
20531;SDS011;10424;52.102;8.084;2022-12-07T05:26:27;15.93;;;6.03;;
20531;SDS011;10424;52.102;8.084;2022-12-07T05:28:55;15.23;;;6.47;;
20531;SDS011;10424;52.102;8.084;2022-12-07T05:31:24;17.80;;;6.60;;
20531;SDS011;10424;52.102;8.084;2022-12-07T05:33:52;17.50;;;6.10;;
20531;SDS011;10424;52.102;8.084;2022-12-07T05:36:19;14.30;;;5.73;;
20531;SDS011;10424;52.102;8.084;2022-12-07T05:38:46;11.10;;;5.67;;
20531;SDS011;10424;52.102;8.084;2022-12-07T05:41:15;16.37;;;5.80;;
20531;SDS011;10424;52.102;8.084;2022-12-07T05:44:00;11.67;;;5.83;;
20531;SDS011;10424;52.102;8.084;2022-12-07T05:46:28;14.33;;;6.03;;
20531;SDS011;10424;52.102;8.084;2022-12-07T05:48:56;11.03;;;5.30;;
20531;SDS011;10424;52.102;8.084;2022-12-07T05:51:23;12.50;;;5.10;;
20531;SDS011;10424;52.102;8.084;2022-12-07T05:53:50;13.00;;;5.80;;
20531;SDS011;10424;52.102;8.084;2022-12-07T05:56:18;15.83;;;6.07;;
20531;SDS011;10424;52.102;8.084;2022-12-07T05:58:45;14.47;;;5.20;;
20531;SDS011;10424;52.102;8.084;2022-12-07T06:01:32;10.50;;;5.17;;
20531;SDS011;10424;52.102;8.084;2022-12-07T06:03:59;13.93;;;5.30;;
20531;SDS011;10424;52.102;8.084;2022-12-07T06:06:26;12.33;;;5.00;;
20531;SDS011;10424;52.102;8.084;2022-12-07T06:08:53;15.50;;;5.17;;
20531;SDS011;10424;52.102;8.084;2022-12-07T06:11:21;14.90;;;5.53;;
20531;SDS011;10424;52.102;8.084;2022-12-07T06:14:05;10.07;;;4.90;;
20531;SDS011;10424;52.102;8.084;2022-12-07T06:16:34;12.37;;;4.97;;
20531;SDS011;10424;52.102;8.084;2022-12-07T06:19:01;9.30;;;5.17;;
20531;SDS011;10424;52.102;8.084;2022-12-07T06:21:29;11.03;;;4.80;;
20531;SDS011;10424;52.102;8.084;2022-12-07T06:23:56;10.40;;;4.60;;
20531;SDS011;10424;52.102;8.084;2022-12-07T06:26:23;9.70;;;4.53;;
20531;SDS011;10424;52.102;8.084;2022-12-07T06:28:50;12.03;;;4.47;;
20531;SDS011;10424;52.102;8.084;2022-12-07T06:31:18;11.70;;;4.70;;
20531;SDS011;10424;52.102;8.084;2022-12-07T06:33:46;11.60;;;4.40;;
20531;SDS011;10424;52.102;8.084;2022-12-07T06:36:14;10.30;;;4.27;;
20531;SDS011;10424;52.102;8.084;2022-12-07T06:38:41;11.77;;;4.70;;
20531;SDS011;10424;52.102;8.084;2022-12-07T06:41:08;12.60;;;5.10;;
20531;SDS011;10424;52.102;8.084;2022-12-07T06:43:36;11.70;;;4.73;;
20531;SDS011;10424;52.102;8.084;2022-12-07T06:46:03;13.53;;;4.57;;
20531;SDS011;10424;52.102;8.084;2022-12-07T06:48:30;9.87;;;4.13;;
20531;SDS011;10424;52.102;8.084;2022-12-07T06:50:59;12.13;;;4.40;;
20531;SDS011;10424;52.102;8.084;2022-12-07T06:53:26;14.00;;;4.80;;
20531;SDS011;10424;52.102;8.084;2022-12-07T06:55:54;11.83;;;4.67;;
20531;SDS011;10424;52.102;8.084;2022-12-07T06:58:21;10.43;;;4.30;;
20531;SDS011;10424;52.102;8.084;2022-12-07T07:00:48;10.57;;;4.07;;
20531;SDS011;10424;52.102;8.084;2022-12-07T07:03:16;10.87;;;4.00;;
20531;SDS011;10424;52.102;8.084;2022-12-07T07:05:43;16.97;;;4.40;;
20531;SDS011;10424;52.102;8.084;2022-12-07T07:08:12;14.67;;;4.03;;
20531;SDS011;10424;52.102;8.084;2022-12-07T07:10:39;10.30;;;3.40;;
20531;SDS011;10424;52.102;8.084;2022-12-07T07:13:07;12.00;;;5.00;;
20531;SDS011;10424;52.102;8.084;2022-12-07T07:15:34;9.13;;;4.03;;
20531;SDS011;10424;52.102;8.084;2022-12-07T07:18:02;7.93;;;3.57;;
20531;SDS011;10424;52.102;8.084;2022-12-07T07:20:29;8.87;;;3.43;;
20531;SDS011;10424;52.102;8.084;2022-12-07T07:22:56;9.97;;;3.73;;
20531;SDS011;10424;52.102;8.084;2022-12-07T07:25:25;8.60;;;3.47;;
20531;SDS011;10424;52.102;8.084;2022-12-07T07:27:52;13.73;;;3.90;;
20531;SDS011;10424;52.102;8.084;2022-12-07T07:30:20;10.63;;;3.93;;
20531;SDS011;10424;52.102;8.084;2022-12-07T07:32:47;9.93;;;3.97;;
20531;SDS011;10424;52.102;8.084;2022-12-07T07:35:14;10.77;;;3.47;;
20531;SDS011;10424;52.102;8.084;2022-12-07T07:37:42;11.13;;;3.70;;
20531;SDS011;10424;52.102;8.084;2022-12-07T07:40:09;10.83;;;3.70;;
20531;SDS011;10424;52.102;8.084;2022-12-07T07:42:38;9.33;;;3.50;;
20531;SDS011;10424;52.102;8.084;2022-12-07T07:45:06;11.03;;;3.77;;
20531;SDS011;10424;52.102;8.084;2022-12-07T07:47:33;11.83;;;3.53;;
20531;SDS011;10424;52.102;8.084;2022-12-07T07:50:00;9.77;;;3.90;;
20531;SDS011;10424;52.102;8.084;2022-12-07T07:52:28;12.03;;;3.90;;
20531;SDS011;10424;52.102;8.084;2022-12-07T07:54:55;10.03;;;3.77;;
20531;SDS011;10424;52.102;8.084;2022-12-07T07:57:22;12.53;;;4.10;;
20531;SDS011;10424;52.102;8.084;2022-12-07T07:59:51;15.13;;;4.50;;
20531;SDS011;10424;52.102;8.084;2022-12-07T08:02:19;15.33;;;4.03;;
20531;SDS011;10424;52.102;8.084;2022-12-07T08:04:47;10.73;;;4.23;;
20531;SDS011;10424;52.102;8.084;2022-12-07T08:07:14;9.53;;;3.77;;
20531;SDS011;10424;52.102;8.084;2022-12-07T08:09:42;10.27;;;4.00;;
20531;SDS011;10424;52.102;8.084;2022-12-07T08:12:09;8.17;;;3.60;;
20531;SDS011;10424;52.102;8.084;2022-12-07T08:14:36;12.93;;;3.77;;
20531;SDS011;10424;52.102;8.084;2022-12-07T08:17:05;16.80;;;4.20;;
20531;SDS011;10424;52.102;8.084;2022-12-07T08:19:33;9.80;;;4.07;;
20531;SDS011;10424;52.102;8.084;2022-12-07T08:22:00;13.93;;;4.10;;
20531;SDS011;10424;52.102;8.084;2022-12-07T08:24:27;12.23;;;4.10;;
20531;SDS011;10424;52.102;8.084;2022-12-07T08:26:54;7.23;;;3.40;;
20531;SDS011;10424;52.102;8.084;2022-12-07T08:29:22;9.73;;;3.53;;
20531;SDS011;10424;52.102;8.084;2022-12-07T08:31:49;10.23;;;4.37;;
20531;SDS011;10424;52.102;8.084;2022-12-07T08:34:18;7.60;;;3.40;;
20531;SDS011;10424;52.102;8.084;2022-12-07T08:36:45;6.57;;;3.40;;
20531;SDS011;10424;52.102;8.084;2022-12-07T08:39:12;8.17;;;3.20;;
20531;SDS011;10424;52.102;8.084;2022-12-07T08:41:40;4.63;;;2.73;;
20531;SDS011;10424;52.102;8.084;2022-12-07T08:44:07;8.35;;;2.88;;
20531;SDS011;10424;52.102;8.084;2022-12-07T08:46:35;7.07;;;2.80;;
20531;SDS011;10424;52.102;8.084;2022-12-07T08:49:03;8.63;;;3.60;;
20531;SDS011;10424;52.102;8.084;2022-12-07T08:51:33;7.15;;;2.78;;
20531;SDS011;10424;52.102;8.084;2022-12-07T08:54:00;6.03;;;2.13;;
20531;SDS011;10424;52.102;8.084;2022-12-07T08:56:28;4.38;;;2.20;;
20531;SDS011;10424;52.102;8.084;2022-12-07T08:58:55;4.05;;;1.80;;
20531;SDS011;10424;52.102;8.084;2022-12-07T09:01:22;3.80;;;1.92;;
20531;SDS011;10424;52.102;8.084;2022-12-07T09:03:50;4.47;;;1.92;;
20531;SDS011;10424;52.102;8.084;2022-12-07T09:06:17;6.38;;;2.00;;
20531;SDS011;10424;52.102;8.084;2022-12-07T09:08:47;8.35;;;2.13;;
20531;SDS011;10424;52.102;8.084;2022-12-07T09:11:14;8.77;;;2.20;;
20531;SDS011;10424;52.102;8.084;2022-12-07T09:13:42;6.97;;;2.30;;
20531;SDS011;10424;52.102;8.084;2022-12-07T09:16:09;4.47;;;2.13;;
20531;SDS011;10424;52.102;8.084;2022-12-07T09:18:36;6.90;;;2.00;;
20531;SDS011;10424;52.102;8.084;2022-12-07T09:21:04;5.40;;;2.08;;
20531;SDS011;10424;52.102;8.084;2022-12-07T09:23:31;6.85;;;1.90;;
20531;SDS011;10424;52.102;8.084;2022-12-07T09:26:00;5.85;;;1.90;;
20531;SDS011;10424;52.102;8.084;2022-12-07T09:28:27;4.72;;;1.80;;
20531;SDS011;10424;52.102;8.084;2022-12-07T09:30:55;8.05;;;2.25;;
20531;SDS011;10424;52.102;8.084;2022-12-07T09:33:22;5.60;;;1.60;;
20531;SDS011;10424;52.102;8.084;2022-12-07T09:35:50;3.63;;;1.70;;
20531;SDS011;10424;52.102;8.084;2022-12-07T09:38:18;5.28;;;1.73;;
20531;SDS011;10424;52.102;8.084;2022-12-07T09:40:46;6.50;;;1.70;;
20531;SDS011;10424;52.102;8.084;2022-12-07T09:43:16;6.55;;;1.70;;
20531;SDS011;10424;52.102;8.084;2022-12-07T09:45:44;6.78;;;2.03;;
20531;SDS011;10424;52.102;8.084;2022-12-07T09:48:14;7.53;;;1.92;;
20531;SDS011;10424;52.102;8.084;2022-12-07T09:50:44;4.15;;;1.50;;
20531;SDS011;10424;52.102;8.084;2022-12-07T09:53:13;5.93;;;1.80;;
20531;SDS011;10424;52.102;8.084;2022-12-07T09:55:42;5.53;;;1.70;;
20531;SDS011;10424;52.102;8.084;2022-12-07T09:58:12;6.60;;;1.85;;
20531;SDS011;10424;52.102;8.084;2022-12-07T10:00:46;5.03;;;1.70;;
20531;SDS011;10424;52.102;8.084;2022-12-07T10:03:13;5.53;;;1.67;;
20531;SDS011;10424;52.102;8.084;2022-12-07T10:05:41;8.52;;;1.90;;
20531;SDS011;10424;52.102;8.084;2022-12-07T10:08:09;5.00;;;1.75;;
20531;SDS011;10424;52.102;8.084;2022-12-07T10:10:39;5.45;;;1.95;;
20531;SDS011;10424;52.102;8.084;2022-12-07T10:13:07;9.25;;;2.00;;
20531;SDS011;10424;52.102;8.084;2022-12-07T10:15:42;6.43;;;2.22;;
20531;SDS011;10424;52.102;8.084;2022-12-07T10:18:21;9.20;;;1.83;;
20531;SDS011;10424;52.102;8.084;2022-12-07T10:20:59;8.75;;;1.80;;
20531;SDS011;10424;52.102;8.084;2022-12-07T10:23:27;3.15;;;1.40;;
20531;SDS011;10424;52.102;8.084;2022-12-07T10:25:54;9.27;;;1.85;;
20531;SDS011;10424;52.102;8.084;2022-12-07T10:28:21;4.07;;;1.90;;
20531;SDS011;10424;52.102;8.084;2022-12-07T10:30:50;6.60;;;1.60;;
20531;SDS011;10424;52.102;8.084;2022-12-07T10:33:29;4.70;;;2.10;;
20531;SDS011;10424;52.102;8.084;2022-12-07T10:35:56;6.13;;;1.70;;
20531;SDS011;10424;52.102;8.084;2022-12-07T10:38:25;6.53;;;1.90;;
20531;SDS011;10424;52.102;8.084;2022-12-07T10:41:02;4.18;;;1.58;;
20531;SDS011;10424;52.102;8.084;2022-12-07T10:43:31;7.38;;;1.88;;
20531;SDS011;10424;52.102;8.084;2022-12-07T10:48:53;6.93;;;1.92;;
20531;SDS011;10424;52.102;8.084;2022-12-07T10:51:24;4.68;;;1.60;;
20531;SDS011;10424;52.102;8.084;2022-12-07T10:53:57;3.90;;;1.50;;
20531;SDS011;10424;52.102;8.084;2022-12-07T10:56:33;7.47;;;1.98;;
20531;SDS011;10424;52.102;8.084;2022-12-07T10:59:18;5.30;;;1.70;;
20531;SDS011;10424;52.102;8.084;2022-12-07T11:01:50;3.95;;;1.55;;
20531;SDS011;10424;52.102;8.084;2022-12-07T11:04:24;7.90;;;1.83;;
20531;SDS011;10424;52.102;8.084;2022-12-07T11:06:54;6.00;;;1.67;;
20531;SDS011;10424;52.102;8.084;2022-12-07T11:09:36;4.85;;;1.55;;
20531;SDS011;10424;52.102;8.084;2022-12-07T11:12:09;8.18;;;1.77;;
20531;SDS011;10424;52.102;8.084;2022-12-07T11:14:40;4.05;;;1.50;;
20531;SDS011;10424;52.102;8.084;2022-12-07T11:17:12;4.03;;;1.48;;
20531;SDS011;10424;52.102;8.084;2022-12-07T11:19:55;4.40;;;1.42;;
20531;SDS011;10424;52.102;8.084;2022-12-07T11:22:29;4.93;;;1.55;;
20531;SDS011;10424;52.102;8.084;2022-12-07T11:25:02;7.10;;;1.90;;
20531;SDS011;10424;52.102;8.084;2022-12-07T11:27:38;5.38;;;2.00;;
20531;SDS011;10424;52.102;8.084;2022-12-07T11:30:13;4.93;;;1.80;;
20531;SDS011;10424;52.102;8.084;2022-12-07T11:32:49;6.03;;;1.70;;
20531;SDS011;10424;52.102;8.084;2022-12-07T11:35:27;5.57;;;1.83;;
20531;SDS011;10424;52.102;8.084;2022-12-07T11:37:57;4.97;;;1.48;;
20531;SDS011;10424;52.102;8.084;2022-12-07T11:40:26;5.88;;;1.60;;
20531;SDS011;10424;52.102;8.084;2022-12-07T11:42:55;6.93;;;1.75;;
20531;SDS011;10424;52.102;8.084;2022-12-07T11:45:25;7.07;;;1.75;;
20531;SDS011;10424;52.102;8.084;2022-12-07T11:47:54;3.40;;;1.60;;
20531;SDS011;10424;52.102;8.084;2022-12-07T11:50:26;8.27;;;1.65;;
20531;SDS011;10424;52.102;8.084;2022-12-07T11:52:55;5.28;;;1.77;;
20531;SDS011;10424;52.102;8.084;2022-12-07T11:55:26;5.88;;;2.28;;
20531;SDS011;10424;52.102;8.084;2022-12-07T11:57:58;5.47;;;1.60;;
20531;SDS011;10424;52.102;8.084;2022-12-07T12:00:28;8.52;;;1.92;;
20531;SDS011;10424;52.102;8.084;2022-12-07T12:02:56;5.55;;;1.40;;
20531;SDS011;10424;52.102;8.084;2022-12-07T12:05:26;5.53;;;1.60;;
20531;SDS011;10424;52.102;8.084;2022-12-07T12:07:58;9.57;;;1.80;;
20531;SDS011;10424;52.102;8.084;2022-12-07T12:10:29;3.70;;;1.40;;
20531;SDS011;10424;52.102;8.084;2022-12-07T12:13:06;8.32;;;1.75;;
20531;SDS011;10424;52.102;8.084;2022-12-07T12:15:41;5.32;;;1.70;;
20531;SDS011;10424;52.102;8.084;2022-12-07T12:18:16;4.30;;;1.60;;
20531;SDS011;10424;52.102;8.084;2022-12-07T12:20:48;4.95;;;1.70;;
20531;SDS011;10424;52.102;8.084;2022-12-07T12:23:18;4.15;;;1.67;;
20531;SDS011;10424;52.102;8.084;2022-12-07T12:25:46;4.57;;;1.50;;
20531;SDS011;10424;52.102;8.084;2022-12-07T12:28:24;5.25;;;1.58;;
20531;SDS011;10424;52.102;8.084;2022-12-07T12:31:07;4.78;;;1.52;;
20531;SDS011;10424;52.102;8.084;2022-12-07T12:33:36;8.00;;;2.40;;
20531;SDS011;10424;52.102;8.084;2022-12-07T12:39:10;6.75;;;2.50;;
20531;SDS011;10424;52.102;8.084;2022-12-07T12:41:55;3.65;;;1.80;;
20531;SDS011;10424;52.102;8.084;2022-12-07T12:47:42;5.70;;;1.58;;
20531;SDS011;10424;52.102;8.084;2022-12-07T12:50:14;5.03;;;1.77;;
20531;SDS011;10424;52.102;8.084;2022-12-07T12:52:48;3.78;;;1.88;;
20531;SDS011;10424;52.102;8.084;2022-12-07T12:55:29;3.83;;;1.55;;
20531;SDS011;10424;52.102;8.084;2022-12-07T13:00:46;5.65;;;1.83;;
20531;SDS011;10424;52.102;8.084;2022-12-07T13:03:20;7.82;;;1.60;;
20531;SDS011;10424;52.102;8.084;2022-12-07T13:05:51;7.40;;;1.90;;
20531;SDS011;10424;52.102;8.084;2022-12-07T13:08:37;6.40;;;1.90;;
20531;SDS011;10424;52.102;8.084;2022-12-07T13:11:18;10.98;;;3.75;;
20531;SDS011;10424;52.102;8.084;2022-12-07T13:13:47;7.65;;;2.85;;
20531;SDS011;10424;52.102;8.084;2022-12-07T13:22:03;6.18;;;2.00;;
20531;SDS011;10424;52.102;8.084;2022-12-07T13:24:31;6.22;;;1.88;;
20531;SDS011;10424;52.102;8.084;2022-12-07T13:27:06;11.40;;;2.85;;
20531;SDS011;10424;52.102;8.084;2022-12-07T13:29:36;7.45;;;1.67;;
20531;SDS011;10424;52.102;8.084;2022-12-07T13:32:17;8.57;;;1.98;;
20531;SDS011;10424;52.102;8.084;2022-12-07T13:34:51;4.30;;;2.00;;
20531;SDS011;10424;52.102;8.084;2022-12-07T13:37:24;8.05;;;1.98;;
20531;SDS011;10424;52.102;8.084;2022-12-07T13:39:53;9.07;;;2.30;;
20531;SDS011;10424;52.102;8.084;2022-12-07T13:42:25;5.35;;;1.70;;
20531;SDS011;10424;52.102;8.084;2022-12-07T13:44:54;6.20;;;2.20;;
20531;SDS011;10424;52.102;8.084;2022-12-07T13:47:28;6.30;;;2.30;;
20531;SDS011;10424;52.102;8.084;2022-12-07T13:49:59;6.78;;;1.88;;
20531;SDS011;10424;52.102;8.084;2022-12-07T13:52:27;7.60;;;2.65;;
20531;SDS011;10424;52.102;8.084;2022-12-07T13:54:56;8.32;;;1.77;;
20531;SDS011;10424;52.102;8.084;2022-12-07T13:57:30;6.78;;;1.40;;
20531;SDS011;10424;52.102;8.084;2022-12-07T13:59:59;7.88;;;1.90;;
20531;SDS011;10424;52.102;8.084;2022-12-07T14:02:28;6.15;;;1.83;;
20531;SDS011;10424;52.102;8.084;2022-12-07T14:05:06;7.25;;;1.90;;
20531;SDS011;10424;52.102;8.084;2022-12-07T14:07:34;5.25;;;1.80;;
20531;SDS011;10424;52.102;8.084;2022-12-07T14:12:45;6.35;;;2.20;;
20531;SDS011;10424;52.102;8.084;2022-12-07T14:15:15;6.60;;;1.63;;
20531;SDS011;10424;52.102;8.084;2022-12-07T14:17:50;6.05;;;1.80;;
20531;SDS011;10424;52.102;8.084;2022-12-07T14:20:32;6.03;;;2.00;;
20531;SDS011;10424;52.102;8.084;2022-12-07T14:23:00;8.50;;;2.20;;
20531;SDS011;10424;52.102;8.084;2022-12-07T14:25:44;11.60;;;2.70;;
20531;SDS011;10424;52.102;8.084;2022-12-07T14:28:25;7.55;;;2.53;;
20531;SDS011;10424;52.102;8.084;2022-12-07T14:30:56;5.35;;;2.20;;
20531;SDS011;10424;52.102;8.084;2022-12-07T14:33:23;9.75;;;2.70;;
20531;SDS011;10424;52.102;8.084;2022-12-07T14:35:51;6.60;;;2.28;;
20531;SDS011;10424;52.102;8.084;2022-12-07T14:38:20;4.20;;;2.25;;
20531;SDS011;10424;52.102;8.084;2022-12-07T14:40:49;5.72;;;2.70;;
20531;SDS011;10424;52.102;8.084;2022-12-07T14:43:20;8.48;;;3.10;;
20531;SDS011;10424;52.102;8.084;2022-12-07T14:45:49;6.30;;;2.00;;
20531;SDS011;10424;52.102;8.084;2022-12-07T14:48:16;10.98;;;2.30;;
20531;SDS011;10424;52.102;8.084;2022-12-07T14:50:44;7.13;;;2.17;;
20531;SDS011;10424;52.102;8.084;2022-12-07T14:53:13;9.70;;;2.40;;
20531;SDS011;10424;52.102;8.084;2022-12-07T14:55:43;6.40;;;2.17;;
20531;SDS011;10424;52.102;8.084;2022-12-07T14:58:22;6.57;;;2.20;;
20531;SDS011;10424;52.102;8.084;2022-12-07T15:00:51;7.50;;;2.20;;
20531;SDS011;10424;52.102;8.084;2022-12-07T15:03:18;7.07;;;2.33;;
20531;SDS011;10424;52.102;8.084;2022-12-07T15:05:48;6.03;;;2.80;;
20531;SDS011;10424;52.102;8.084;2022-12-07T15:08:15;8.32;;;2.33;;
20531;SDS011;10424;52.102;8.084;2022-12-07T15:10:44;9.18;;;2.10;;
20531;SDS011;10424;52.102;8.084;2022-12-07T15:13:11;6.43;;;2.30;;
20531;SDS011;10424;52.102;8.084;2022-12-07T15:15:59;7.38;;;1.92;;